Weather at Sanyyakhtakh Airport

Public forecast

Using degrees Celsius for public forecast. Weather courtesy of forecast.io.

Closest aviation weather report (METAR) to Sanyyakhtakh Airport

Closest report is Yakutsk Airport, 187.9 nm (347.9 km) ENE. Retrieved 2021/06/21 08:30 UTC (28 minutes ago):

UEEE 210830Z 21003MPS 9999 SCT050CB 32/09 Q1000 R23L/09//70 NOSIG RMK QFE741

Closest aviation forecast (TAF) to Sanyyakhtakh Airport

Closest forecast is Yakutsk Airport, 187.9 nm (347.9 km) ENE. Retrieved 2021/06/21 09:22 UTC (0 seconds ago):

TAF UEEE 210800Z 2109/2215 31005G10MPS 9999 SCT030CB BKN100 TX30/2109Z TN15/2117Z TEMPO 2109/2115 VRB18MPS 3200 -TSGRRA